sensor_id;sensor_type;location;lat;lon;timestamp;P1;durP1;ratioP1;P2;durP2;ratioP2
70426;SDS011;57872;55.432;37.248;2023-08-12T00:01:16;26.15;;;17.48;;
70426;SDS011;57872;55.432;37.248;2023-08-12T00:06:20;23.10;;;17.48;;
70426;SDS011;57872;55.432;37.248;2023-08-12T00:11:20;24.33;;;15.98;;
70426;SDS011;57872;55.432;37.248;2023-08-12T00:16:22;23.63;;;16.17;;
70426;SDS011;57872;55.432;37.248;2023-08-12T00:21:23;24.55;;;18.42;;
70426;SDS011;57872;55.432;37.248;2023-08-12T00:26:29;27.35;;;17.38;;
70426;SDS011;57872;55.432;37.248;2023-08-12T00:31:31;22.63;;;16.48;;
70426;SDS011;57872;55.432;37.248;2023-08-12T00:36:32;25.45;;;17.67;;
70426;SDS011;57872;55.432;37.248;2023-08-12T00:41:33;21.80;;;15.38;;
70426;SDS011;57872;55.432;37.248;2023-08-12T00:46:38;23.88;;;15.98;;
70426;SDS011;57872;55.432;37.248;2023-08-12T00:51:43;25.20;;;17.20;;
70426;SDS011;57872;55.432;37.248;2023-08-12T00:56:45;22.13;;;15.30;;
70426;SDS011;57872;55.432;37.248;2023-08-12T01:01:51;27.40;;;16.83;;
70426;SDS011;57872;55.432;37.248;2023-08-12T01:07:20;20.90;;;14.55;;
70426;SDS011;57872;55.432;37.248;2023-08-12T01:12:27;23.10;;;16.33;;
70426;SDS011;57872;55.432;37.248;2023-08-12T01:17:30;24.73;;;16.75;;
70426;SDS011;57872;55.432;37.248;2023-08-12T01:22:37;26.98;;;17.42;;
70426;SDS011;57872;55.432;37.248;2023-08-12T01:27:40;30.67;;;21.15;;
70426;SDS011;57872;55.432;37.248;2023-08-12T01:38:05;22.10;;;15.93;;
70426;SDS011;57872;55.432;37.248;2023-08-12T01:43:10;25.02;;;16.33;;
70426;SDS011;57872;55.432;37.248;2023-08-12T01:48:23;22.95;;;17.63;;
70426;SDS011;57872;55.432;37.248;2023-08-12T01:53:34;22.70;;;14.25;;
70426;SDS011;57872;55.432;37.248;2023-08-12T01:58:44;24.90;;;17.42;;
70426;SDS011;57872;55.432;37.248;2023-08-12T02:03:49;25.23;;;16.88;;
70426;SDS011;57872;55.432;37.248;2023-08-12T02:08:51;24.42;;;16.10;;
70426;SDS011;57872;55.432;37.248;2023-08-12T02:13:55;22.10;;;16.27;;
70426;SDS011;57872;55.432;37.248;2023-08-12T02:19:16;23.33;;;15.07;;
70426;SDS011;57872;55.432;37.248;2023-08-12T02:24:59;24.05;;;15.82;;
70426;SDS011;57872;55.432;37.248;2023-08-12T02:30:29;21.80;;;15.05;;
70426;SDS011;57872;55.432;37.248;2023-08-12T02:35:59;25.30;;;16.20;;
70426;SDS011;57872;55.432;37.248;2023-08-12T02:41:49;24.58;;;15.63;;
70426;SDS011;57872;55.432;37.248;2023-08-12T02:46:57;21.75;;;15.50;;
70426;SDS011;57872;55.432;37.248;2023-08-12T02:52:00;24.05;;;14.98;;
70426;SDS011;57872;55.432;37.248;2023-08-12T02:57:14;26.25;;;15.18;;
70426;SDS011;57872;55.432;37.248;2023-08-12T03:02:22;28.60;;;17.63;;
70426;SDS011;57872;55.432;37.248;2023-08-12T03:07:23;22.03;;;16.03;;
70426;SDS011;57872;55.432;37.248;2023-08-12T03:12:30;21.48;;;15.38;;
70426;SDS011;57872;55.432;37.248;2023-08-12T03:18:10;26.23;;;16.00;;
70426;SDS011;57872;55.432;37.248;2023-08-12T03:23:27;23.67;;;15.05;;
70426;SDS011;57872;55.432;37.248;2023-08-12T03:28:30;22.92;;;15.75;;
70426;SDS011;57872;55.432;37.248;2023-08-12T03:33:31;22.77;;;15.13;;
70426;SDS011;57872;55.432;37.248;2023-08-12T03:38:34;26.25;;;14.70;;
70426;SDS011;57872;55.432;37.248;2023-08-12T03:43:37;23.58;;;14.98;;
70426;SDS011;57872;55.432;37.248;2023-08-12T03:48:39;24.05;;;15.82;;
70426;SDS011;57872;55.432;37.248;2023-08-12T03:53:46;16.93;;;13.30;;
70426;SDS011;57872;55.432;37.248;2023-08-12T03:59:11;25.05;;;14.50;;
70426;SDS011;57872;55.432;37.248;2023-08-12T04:04:12;20.35;;;14.05;;
70426;SDS011;57872;55.432;37.248;2023-08-12T04:09:31;26.08;;;15.02;;
70426;SDS011;57872;55.432;37.248;2023-08-12T04:14:48;25.75;;;15.50;;
70426;SDS011;57872;55.432;37.248;2023-08-12T04:19:49;21.10;;;15.10;;
70426;SDS011;57872;55.432;37.248;2023-08-12T04:24:50;23.38;;;14.23;;
70426;SDS011;57872;55.432;37.248;2023-08-12T04:29:51;23.95;;;14.18;;
70426;SDS011;57872;55.432;37.248;2023-08-12T04:34:58;22.00;;;14.75;;
70426;SDS011;57872;55.432;37.248;2023-08-12T04:40:11;25.20;;;15.35;;
70426;SDS011;57872;55.432;37.248;2023-08-12T04:45:27;19.92;;;13.85;;
70426;SDS011;57872;55.432;37.248;2023-08-12T04:50:29;22.97;;;15.27;;
70426;SDS011;57872;55.432;37.248;2023-08-12T05:01:10;21.45;;;13.00;;
70426;SDS011;57872;55.432;37.248;2023-08-12T05:07:07;20.20;;;12.77;;
70426;SDS011;57872;55.432;37.248;2023-08-12T05:12:14;18.92;;;13.48;;
70426;SDS011;57872;55.432;37.248;2023-08-12T05:17:14;22.88;;;12.65;;
70426;SDS011;57872;55.432;37.248;2023-08-12T05:22:16;19.83;;;12.35;;
70426;SDS011;57872;55.432;37.248;2023-08-12T05:27:17;19.73;;;12.23;;
70426;SDS011;57872;55.432;37.248;2023-08-12T05:32:19;21.88;;;13.18;;
70426;SDS011;57872;55.432;37.248;2023-08-12T05:37:20;22.38;;;12.68;;
70426;SDS011;57872;55.432;37.248;2023-08-12T05:42:20;23.33;;;13.60;;
70426;SDS011;57872;55.432;37.248;2023-08-12T05:47:21;19.05;;;13.00;;
70426;SDS011;57872;55.432;37.248;2023-08-12T05:52:25;21.75;;;12.70;;
70426;SDS011;57872;55.432;37.248;2023-08-12T05:57:26;19.95;;;11.88;;
70426;SDS011;57872;55.432;37.248;2023-08-12T06:02:27;18.63;;;12.37;;
70426;SDS011;57872;55.432;37.248;2023-08-12T06:07:28;18.05;;;12.25;;
70426;SDS011;57872;55.432;37.248;2023-08-12T06:12:29;19.75;;;11.02;;
70426;SDS011;57872;55.432;37.248;2023-08-12T06:17:30;18.03;;;12.13;;
70426;SDS011;57872;55.432;37.248;2023-08-12T06:22:34;20.90;;;12.48;;
70426;SDS011;57872;55.432;37.248;2023-08-12T06:27:38;16.70;;;11.65;;
70426;SDS011;57872;55.432;37.248;2023-08-12T06:32:38;20.52;;;11.63;;
70426;SDS011;57872;55.432;37.248;2023-08-12T06:37:39;19.58;;;11.57;;
70426;SDS011;57872;55.432;37.248;2023-08-12T06:42:42;18.70;;;12.45;;
70426;SDS011;57872;55.432;37.248;2023-08-12T06:47:43;19.20;;;11.88;;
70426;SDS011;57872;55.432;37.248;2023-08-12T06:52:49;19.45;;;12.35;;
70426;SDS011;57872;55.432;37.248;2023-08-12T06:57:53;18.88;;;13.27;;
70426;SDS011;57872;55.432;37.248;2023-08-12T07:02:54;21.23;;;13.73;;
70426;SDS011;57872;55.432;37.248;2023-08-12T07:07:55;18.63;;;12.70;;
70426;SDS011;57872;55.432;37.248;2023-08-12T07:13:02;17.98;;;12.05;;
70426;SDS011;57872;55.432;37.248;2023-08-12T07:18:06;15.80;;;11.60;;
70426;SDS011;57872;55.432;37.248;2023-08-12T07:23:07;20.17;;;11.93;;
70426;SDS011;57872;55.432;37.248;2023-08-12T07:28:08;19.50;;;12.23;;
70426;SDS011;57872;55.432;37.248;2023-08-12T07:33:09;21.77;;;12.52;;
70426;SDS011;57872;55.432;37.248;2023-08-12T07:38:13;19.65;;;12.63;;
70426;SDS011;57872;55.432;37.248;2023-08-12T07:43:13;19.73;;;12.73;;
70426;SDS011;57872;55.432;37.248;2023-08-12T07:48:24;27.25;;;13.23;;
70426;SDS011;57872;55.432;37.248;2023-08-12T07:53:42;18.85;;;11.98;;
70426;SDS011;57872;55.432;37.248;2023-08-12T07:58:51;22.73;;;13.55;;
70426;SDS011;57872;55.432;37.248;2023-08-12T08:03:52;20.60;;;15.02;;
70426;SDS011;57872;55.432;37.248;2023-08-12T08:09:09;20.98;;;14.07;;
70426;SDS011;57872;55.432;37.248;2023-08-12T08:14:10;23.95;;;14.80;;
70426;SDS011;57872;55.432;37.248;2023-08-12T08:19:16;23.23;;;13.93;;
70426;SDS011;57872;55.432;37.248;2023-08-12T08:24:30;20.08;;;13.40;;
70426;SDS011;57872;55.432;37.248;2023-08-12T08:30:24;17.08;;;12.00;;
70426;SDS011;57872;55.432;37.248;2023-08-12T08:35:47;19.98;;;12.27;;
70426;SDS011;57872;55.432;37.248;2023-08-12T08:41:28;19.02;;;13.05;;
70426;SDS011;57872;55.432;37.248;2023-08-12T08:46:47;18.33;;;10.85;;
70426;SDS011;57872;55.432;37.248;2023-08-12T08:51:50;19.73;;;11.63;;
70426;SDS011;57872;55.432;37.248;2023-08-12T08:57:03;20.88;;;13.70;;
70426;SDS011;57872;55.432;37.248;2023-08-12T09:02:38;17.67;;;13.05;;
70426;SDS011;57872;55.432;37.248;2023-08-12T09:07:49;20.85;;;14.45;;
70426;SDS011;57872;55.432;37.248;2023-08-12T09:13:07;24.38;;;15.07;;
70426;SDS011;57872;55.432;37.248;2023-08-12T09:18:49;22.65;;;16.35;;
70426;SDS011;57872;55.432;37.248;2023-08-12T09:24:01;20.58;;;12.57;;
70426;SDS011;57872;55.432;37.248;2023-08-12T09:29:09;19.42;;;14.38;;
70426;SDS011;57872;55.432;37.248;2023-08-12T09:34:13;21.80;;;16.30;;
70426;SDS011;57872;55.432;37.248;2023-08-12T09:39:23;19.70;;;12.93;;
70426;SDS011;57872;55.432;37.248;2023-08-12T09:44:24;21.17;;;14.85;;
70426;SDS011;57872;55.432;37.248;2023-08-12T09:49:49;27.40;;;18.27;;
70426;SDS011;57872;55.432;37.248;2023-08-12T09:55:30;22.35;;;14.48;;
70426;SDS011;57872;55.432;37.248;2023-08-12T10:00:55;19.55;;;13.50;;
70426;SDS011;57872;55.432;37.248;2023-08-12T10:05:57;28.93;;;18.53;;
70426;SDS011;57872;55.432;37.248;2023-08-12T10:11:05;21.58;;;14.02;;
70426;SDS011;57872;55.432;37.248;2023-08-12T10:16:09;22.08;;;14.35;;
70426;SDS011;57872;55.432;37.248;2023-08-12T10:21:13;28.45;;;21.50;;
70426;SDS011;57872;55.432;37.248;2023-08-12T10:26:43;26.83;;;14.65;;
70426;SDS011;57872;55.432;37.248;2023-08-12T10:31:53;18.98;;;12.98;;
70426;SDS011;57872;55.432;37.248;2023-08-12T10:36:55;17.48;;;12.80;;
70426;SDS011;57872;55.432;37.248;2023-08-12T10:42:03;21.65;;;14.57;;
70426;SDS011;57872;55.432;37.248;2023-08-12T10:59:00;19.63;;;13.82;;
70426;SDS011;57872;55.432;37.248;2023-08-12T11:04:17;21.33;;;12.85;;
70426;SDS011;57872;55.432;37.248;2023-08-12T11:09:42;19.23;;;13.07;;
70426;SDS011;57872;55.432;37.248;2023-08-12T11:14:53;24.85;;;15.73;;
70426;SDS011;57872;55.432;37.248;2023-08-12T11:20:08;23.70;;;13.55;;
70426;SDS011;57872;55.432;37.248;2023-08-12T11:25:15;22.48;;;13.75;;
70426;SDS011;57872;55.432;37.248;2023-08-12T11:30:17;22.55;;;13.88;;
70426;SDS011;57872;55.432;37.248;2023-08-12T11:35:20;23.58;;;14.75;;
70426;SDS011;57872;55.432;37.248;2023-08-12T11:45:26;22.25;;;14.93;;
70426;SDS011;57872;55.432;37.248;2023-08-12T11:51:23;23.45;;;16.13;;
70426;SDS011;57872;55.432;37.248;2023-08-12T11:57:07;25.98;;;16.15;;
70426;SDS011;57872;55.432;37.248;2023-08-12T12:02:07;30.75;;;18.83;;
70426;SDS011;57872;55.432;37.248;2023-08-12T12:07:19;27.30;;;16.88;;
70426;SDS011;57872;55.432;37.248;2023-08-12T12:12:54;23.27;;;14.80;;
70426;SDS011;57872;55.432;37.248;2023-08-12T12:18:20;22.73;;;13.90;;
70426;SDS011;57872;55.432;37.248;2023-08-12T12:23:43;19.92;;;13.40;;
70426;SDS011;57872;55.432;37.248;2023-08-12T12:28:44;18.67;;;12.55;;
70426;SDS011;57872;55.432;37.248;2023-08-12T12:33:56;18.75;;;12.07;;
70426;SDS011;57872;55.432;37.248;2023-08-12T12:39:11;20.85;;;12.93;;
70426;SDS011;57872;55.432;37.248;2023-08-12T12:44:28;18.38;;;12.68;;
70426;SDS011;57872;55.432;37.248;2023-08-12T12:50:03;18.55;;;12.73;;
70426;SDS011;57872;55.432;37.248;2023-08-12T12:55:04;19.35;;;11.30;;
70426;SDS011;57872;55.432;37.248;2023-08-12T13:00:12;26.30;;;13.03;;
70426;SDS011;57872;55.432;37.248;2023-08-12T13:05:16;17.00;;;12.02;;
70426;SDS011;57872;55.432;37.248;2023-08-12T13:10:23;18.33;;;12.57;;
70426;SDS011;57872;55.432;37.248;2023-08-12T13:15:24;16.08;;;11.43;;
70426;SDS011;57872;55.432;37.248;2023-08-12T13:20:27;18.13;;;11.38;;
70426;SDS011;57872;55.432;37.248;2023-08-12T13:25:29;16.25;;;11.25;;
70426;SDS011;57872;55.432;37.248;2023-08-12T13:30:35;16.00;;;10.23;;
70426;SDS011;57872;55.432;37.248;2023-08-12T13:35:45;18.75;;;12.52;;
70426;SDS011;57872;55.432;37.248;2023-08-12T13:40:54;15.98;;;11.18;;
70426;SDS011;57872;55.432;37.248;2023-08-12T13:46:45;16.40;;;11.10;;
70426;SDS011;57872;55.432;37.248;2023-08-12T13:52:20;18.10;;;10.80;;
70426;SDS011;57872;55.432;37.248;2023-08-12T13:57:26;17.08;;;11.18;;
70426;SDS011;57872;55.432;37.248;2023-08-12T14:03:17;24.10;;;15.88;;
70426;SDS011;57872;55.432;37.248;2023-08-12T14:08:53;16.88;;;10.38;;
70426;SDS011;57872;55.432;37.248;2023-08-12T14:20:38;17.17;;;10.48;;
70426;SDS011;57872;55.432;37.248;2023-08-12T14:25:44;14.63;;;9.75;;
70426;SDS011;57872;55.432;37.248;2023-08-12T14:31:05;15.43;;;10.35;;
70426;SDS011;57872;55.432;37.248;2023-08-12T14:36:33;15.82;;;10.57;;
70426;SDS011;57872;55.432;37.248;2023-08-12T14:41:58;19.17;;;12.60;;
70426;SDS011;57872;55.432;37.248;2023-08-12T14:47:23;17.98;;;10.75;;
70426;SDS011;57872;55.432;37.248;2023-08-12T14:53:06;18.20;;;10.68;;
70426;SDS011;57872;55.432;37.248;2023-08-12T14:58:07;17.27;;;11.30;;
70426;SDS011;57872;55.432;37.248;2023-08-12T15:03:11;18.25;;;12.35;;
70426;SDS011;57872;55.432;37.248;2023-08-12T15:13:30;16.08;;;10.23;;
70426;SDS011;57872;55.432;37.248;2023-08-12T15:19:26;18.27;;;10.63;;
70426;SDS011;57872;55.432;37.248;2023-08-12T15:24:43;17.17;;;10.80;;
70426;SDS011;57872;55.432;37.248;2023-08-12T15:36:43;15.48;;;10.00;;
70426;SDS011;57872;55.432;37.248;2023-08-12T15:42:13;16.35;;;10.32;;
70426;SDS011;57872;55.432;37.248;2023-08-12T15:59:45;15.27;;;10.30;;
70426;SDS011;57872;55.432;37.248;2023-08-12T16:04:46;16.63;;;10.82;;
70426;SDS011;57872;55.432;37.248;2023-08-12T16:09:48;13.90;;;10.07;;
70426;SDS011;57872;55.432;37.248;2023-08-12T16:15:01;15.82;;;9.98;;
70426;SDS011;57872;55.432;37.248;2023-08-12T16:20:02;17.58;;;10.80;;
70426;SDS011;57872;55.432;37.248;2023-08-12T16:30:41;17.85;;;10.10;;
70426;SDS011;57872;55.432;37.248;2023-08-12T16:41:53;15.15;;;9.60;;
70426;SDS011;57872;55.432;37.248;2023-08-12T16:46:59;16.80;;;10.43;;
70426;SDS011;57872;55.432;37.248;2023-08-12T16:52:08;16.60;;;10.10;;
70426;SDS011;57872;55.432;37.248;2023-08-12T16:57:14;17.30;;;9.45;;
70426;SDS011;57872;55.432;37.248;2023-08-12T17:02:27;16.83;;;10.07;;
70426;SDS011;57872;55.432;37.248;2023-08-12T17:12:43;14.45;;;8.98;;
70426;SDS011;57872;55.432;37.248;2023-08-12T17:17:56;15.82;;;9.38;;
70426;SDS011;57872;55.432;37.248;2023-08-12T17:23:11;14.85;;;9.02;;
70426;SDS011;57872;55.432;37.248;2023-08-12T17:28:32;16.63;;;9.88;;
70426;SDS011;57872;55.432;37.248;2023-08-12T17:33:48;17.92;;;9.60;;
70426;SDS011;57872;55.432;37.248;2023-08-12T17:38:54;14.60;;;9.63;;
70426;SDS011;57872;55.432;37.248;2023-08-12T17:44:24;15.30;;;9.88;;
70426;SDS011;57872;55.432;37.248;2023-08-12T17:49:43;14.35;;;9.48;;
70426;SDS011;57872;55.432;37.248;2023-08-12T17:54:56;17.47;;;9.67;;
70426;SDS011;57872;55.432;37.248;2023-08-12T18:00:02;15.63;;;9.25;;
70426;SDS011;57872;55.432;37.248;2023-08-12T18:05:23;17.25;;;10.27;;
70426;SDS011;57872;55.432;37.248;2023-08-12T18:17:24;17.95;;;9.02;;
70426;SDS011;57872;55.432;37.248;2023-08-12T18:22:30;15.02;;;9.10;;
70426;SDS011;57872;55.432;37.248;2023-08-12T18:28:13;17.30;;;10.13;;
70426;SDS011;57872;55.432;37.248;2023-08-12T18:33:23;13.20;;;9.23;;
70426;SDS011;57872;55.432;37.248;2023-08-12T18:38:45;21.20;;;10.27;;
70426;SDS011;57872;55.432;37.248;2023-08-12T18:44:23;17.55;;;10.68;;
70426;SDS011;57872;55.432;37.248;2023-08-12T18:49:52;17.63;;;10.02;;
70426;SDS011;57872;55.432;37.248;2023-08-12T18:55:11;18.80;;;10.75;;
70426;SDS011;57872;55.432;37.248;2023-08-12T19:00:18;16.67;;;10.80;;
70426;SDS011;57872;55.432;37.248;2023-08-12T19:06:08;15.07;;;9.68;;
70426;SDS011;57872;55.432;37.248;2023-08-12T19:11:09;18.17;;;9.60;;
70426;SDS011;57872;55.432;37.248;2023-08-12T19:16:19;15.90;;;10.80;;
70426;SDS011;57872;55.432;37.248;2023-08-12T19:21:47;16.48;;;10.48;;
70426;SDS011;57872;55.432;37.248;2023-08-12T19:27:18;17.13;;;10.02;;
70426;SDS011;57872;55.432;37.248;2023-08-12T19:32:49;19.20;;;10.68;;
70426;SDS011;57872;55.432;37.248;2023-08-12T19:38:22;18.35;;;11.40;;
70426;SDS011;57872;55.432;37.248;2023-08-12T19:43:25;15.27;;;10.13;;
70426;SDS011;57872;55.432;37.248;2023-08-12T19:48:54;17.75;;;10.07;;
70426;SDS011;57872;55.432;37.248;2023-08-12T19:55:11;19.73;;;11.23;;
70426;SDS011;57872;55.432;37.248;2023-08-12T20:00:21;19.75;;;10.75;;
70426;SDS011;57872;55.432;37.248;2023-08-12T20:05:28;20.40;;;10.82;;
70426;SDS011;57872;55.432;37.248;2023-08-12T20:10:46;19.98;;;10.85;;
70426;SDS011;57872;55.432;37.248;2023-08-12T20:16:13;16.10;;;10.88;;
70426;SDS011;57872;55.432;37.248;2023-08-12T20:21:14;17.27;;;10.55;;
70426;SDS011;57872;55.432;37.248;2023-08-12T20:26:20;17.13;;;11.70;;
70426;SDS011;57872;55.432;37.248;2023-08-12T20:31:52;16.83;;;11.85;;
70426;SDS011;57872;55.432;37.248;2023-08-12T20:37:03;17.45;;;11.35;;
70426;SDS011;57872;55.432;37.248;2023-08-12T20:42:19;19.67;;;11.70;;
70426;SDS011;57872;55.432;37.248;2023-08-12T20:52:31;16.45;;;10.63;;
70426;SDS011;57872;55.432;37.248;2023-08-12T20:57:37;20.58;;;11.90;;
70426;SDS011;57872;55.432;37.248;2023-08-12T21:02:41;18.83;;;11.82;;
70426;SDS011;57872;55.432;37.248;2023-08-12T21:07:47;19.08;;;12.18;;
70426;SDS011;57872;55.432;37.248;2023-08-12T21:12:49;16.88;;;11.25;;
70426;SDS011;57872;55.432;37.248;2023-08-12T21:17:53;17.48;;;12.05;;
70426;SDS011;57872;55.432;37.248;2023-08-12T21:22:54;17.88;;;11.02;;
70426;SDS011;57872;55.432;37.248;2023-08-12T21:27:55;17.95;;;12.13;;
70426;SDS011;57872;55.432;37.248;2023-08-12T21:33:12;21.80;;;12.03;;
70426;SDS011;57872;55.432;37.248;2023-08-12T21:38:16;19.58;;;12.52;;
70426;SDS011;57872;55.432;37.248;2023-08-12T21:43:17;20.92;;;12.88;;
70426;SDS011;57872;55.432;37.248;2023-08-12T21:48:18;22.10;;;12.85;;
70426;SDS011;57872;55.432;37.248;2023-08-12T21:53:19;24.95;;;13.52;;
70426;SDS011;57872;55.432;37.248;2023-08-12T21:58:20;20.67;;;13.15;;
70426;SDS011;57872;55.432;37.248;2023-08-12T22:03:31;17.83;;;12.30;;
70426;SDS011;57872;55.432;37.248;2023-08-12T22:08:32;18.75;;;12.32;;
70426;SDS011;57872;55.432;37.248;2023-08-12T22:13:33;20.98;;;12.15;;
70426;SDS011;57872;55.432;37.248;2023-08-12T22:18:34;19.95;;;12.95;;
70426;SDS011;57872;55.432;37.248;2023-08-12T22:23:36;20.77;;;12.60;;
70426;SDS011;57872;55.432;37.248;2023-08-12T22:28:42;19.67;;;11.98;;
70426;SDS011;57872;55.432;37.248;2023-08-12T22:33:43;23.05;;;12.98;;
70426;SDS011;57872;55.432;37.248;2023-08-12T22:38:45;21.52;;;13.00;;
70426;SDS011;57872;55.432;37.248;2023-08-12T22:43:47;22.17;;;12.97;;
70426;SDS011;57872;55.432;37.248;2023-08-12T22:48:48;20.70;;;12.15;;
70426;SDS011;57872;55.432;37.248;2023-08-12T22:54:04;23.27;;;13.35;;
70426;SDS011;57872;55.432;37.248;2023-08-12T22:59:05;19.55;;;13.52;;
70426;SDS011;57872;55.432;37.248;2023-08-12T23:04:06;18.50;;;12.27;;
70426;SDS011;57872;55.432;37.248;2023-08-12T23:09:07;23.40;;;13.75;;
70426;SDS011;57872;55.432;37.248;2023-08-12T23:14:08;20.98;;;13.05;;
70426;SDS011;57872;55.432;37.248;2023-08-12T23:19:09;26.48;;;14.13;;
70426;SDS011;57872;55.432;37.248;2023-08-12T23:24:13;23.42;;;15.30;;
70426;SDS011;57872;55.432;37.248;2023-08-12T23:29:14;26.52;;;16.02;;
70426;SDS011;57872;55.432;37.248;2023-08-12T23:34:18;23.92;;;13.60;;
70426;SDS011;57872;55.432;37.248;2023-08-12T23:39:19;22.83;;;14.93;;
70426;SDS011;57872;55.432;37.248;2023-08-12T23:44:21;28.75;;;15.23;;
70426;SDS011;57872;55.432;37.248;2023-08-12T23:49:27;23.55;;;13.98;;
70426;SDS011;57872;55.432;37.248;2023-08-12T23:54:34;39.20;;;27.17;;
70426;SDS011;57872;55.432;37.248;2023-08-12T23:59:34;24.05;;;14.35;;
